Anza Borrego Desert State Park, California Weather observations

Data are for 10 minute period ending at time listed.
 Day   Time   Solar   Ave.   Ave.  Ave.  Vector  Max.   Baro.   Total    
  of    of     Rad.   Air    Rel.  Wind   Wind   Wind  Press.  Precip.   
Year   Day            Temp.  Hum.  Speed  Dir.   Gust                    
2017   (PST)  Kw/m2    F      %     mph   deg.    mph    mb.     in.     
-------------------------------------------------------------------------
  54   22:20   0.00   41.4    69    3.5   241     5.3   985.1    0.00 
  54   22:30   0.00   42.1    67    2.3   260     5.4   985.2    0.00 
  54   22:40   0.00   42.2    66    3.2   239     4.5   985.3    0.00 
  54   22:50   0.00   41.9    67    1.7   238     3.5   985.3    0.00 
  54   23:00   0.00   40.7    70    3.2   227     4.3   985.4    0.00 
  54   23:10   0.00   40.7    71    5.0   258     6.7   985.5    0.00 
  54   23:20   0.00   42.0    67    4.4   272     5.9   985.5    0.00 
  54   23:30   0.00   41.6    68    2.7   251     4.2   985.5    0.00 
  54   23:40   0.00   40.7    70    4.9   225     6.6   985.6    0.00 
  54   23:50   0.00   41.2    69    6.5   236     8.0   985.7    0.00 
  55    0:00   0.00   41.7    66    6.3   242     7.4   985.7    0.00 
  55    0:10   0.00   41.5    68    6.6   251     7.9   985.7    0.00 
  55    0:20   0.00   42.4    64    6.7   247     7.7   985.7    0.00 
  55    0:30   0.00   43.5    61    7.3   242     8.4   985.8    0.00 
  55    0:40   0.00   42.4    64    7.0   242     8.5   985.7    0.00 
  55    0:50   0.00   41.7    66    4.6   255     7.2   985.7    0.00 
  55    1:00   0.00   42.4    63    4.9   234     6.9   985.8    0.00 
  55    1:10   0.00   42.1    64    6.4   231     8.2   985.8    0.00 
  55    1:20   0.00   42.6    62    6.4   242     8.6   985.8    0.00 
  55    1:30   0.00   43.1    60    5.4   223     8.0   985.8    0.00 
  55    1:40   0.00   43.6    59    4.7   249     7.0   985.8    0.00 
  55    1:50   0.00   41.3    66    4.5   233     5.8   985.7    0.00 
  55    2:00   0.00   41.7    64    3.7   238     5.1   985.8    0.00 
  55    2:10   0.00   40.7    67    4.8   207     6.1   985.8    0.00 
  55    2:20   0.00   40.6    68    3.4   220     4.8   985.7    0.00 
  55    2:30   0.00   40.1    69    3.3   203     3.9   985.7    0.00 
  55    2:40   0.00   40.2    68    3.2   231     4.5   985.8    0.00 
  55    2:50   0.00   40.4    68    3.3   257     4.5   985.9    0.00 
  55    3:00   0.00   40.2    69    4.3   260     5.2   985.9    0.00 
  55    3:10   0.00   39.9    69    5.8   235     6.9   985.9    0.00 
  55    3:20   0.00   38.8    72    5.6   227     6.3   985.9    0.00 
  55    3:30   0.00   38.5    73    5.3   228     6.9   985.8    0.00 
  55    3:40   0.00   39.5    69    4.1   221     5.5   986.0    0.00 
  55    3:50   0.00   38.7    70    3.8   235     4.8   986.0    0.00 
  55    4:00   0.00   39.4    67    3.0   300     3.9   985.9    0.00 
  55    4:10   0.00   39.1    70    0.9    66     2.3   986.2    0.00 
  55    4:20   0.00   36.9    75    2.4   222     3.4   986.3    0.00 
  55    4:30   0.00   37.7    73    4.2   254     5.6   986.4    0.00 
  55    4:40   0.00   38.8    70    4.2   267     6.1   986.4    0.00 
  55    4:50   0.00   41.6    63    2.0   313     2.9   986.4    0.00 
  55    5:00   0.00   40.5    64    1.8   204     3.7   986.6    0.00 
  55    5:10   0.00   40.2    64    3.3   262     3.9   986.6    0.00 
  55    5:20   0.00   38.2    70    6.0   262     7.7   986.7    0.00 
  55    5:30   0.00   39.4    67    7.3   247     8.9   986.8    0.00 
  55    5:40   0.00   39.2    68    6.9   250     8.3   986.8    0.00 
  55    5:50   0.00   39.4    66    6.9   250     8.0   986.9    0.00 
  55    6:00   0.00   39.1    66    7.2   259     8.0   987.1    0.00 
  55    6:10   0.00   38.5    67    6.1   251     7.2   987.3    0.00 
  55    6:20   0.00   39.3    65    4.7   254     6.4   987.6    0.00 
  55    6:30   0.00   40.8    62    3.9   249     5.1   987.7    0.00 
  55    6:40   0.02   40.9    61    4.8   235     7.0   987.9    0.00 
  55    6:50   0.04   41.2    62    6.5   236     7.5   988.0    0.00 
  55    7:00   0.07   43.5    58    6.1   241     7.2   988.1    0.00 
  55    7:10   0.10   46.4    52    5.4   243     7.1   988.3    0.00 
  55    7:20   0.14   49.0    49    3.5   220     5.0   988.4    0.00 
  55    7:30   0.17   51.7    47    1.5   113     3.9   988.6    0.00 
  55    7:40   0.20   53.5    44    0.6    50     1.5   988.8    0.00 
  55    7:50   0.24   53.9    43    1.4   291     2.8   989.0    0.00 
  55    8:00   0.27   54.9    41    0.4   258     1.8   989.1    0.00 
  55    8:10   0.31   59.2    33    0.2   251     1.7   989.4    0.00 
  55    8:20   0.34   57.9    36    2.1   105     5.6   989.6    0.00 
  55    8:30   0.38   53.3    48    3.3    91     5.1   989.9    0.00 
  55    8:40   0.41   53.5    46    1.7   102     3.7   990.1    0.00 
  55    8:50   0.44   56.0    37    1.7   101     3.4   990.2    0.00 
  55    9:00   0.48   56.6    35    1.6   116     3.8   990.3    0.00 
  55    9:10   0.48   56.7    36    2.0   109     3.9   990.6    0.00 
  55    9:20   0.50   56.3    36    2.8   139     6.7   990.6    0.00 
  55    9:30   0.56   57.2    34    1.8    48     3.9   990.7    0.00 
  55    9:40   0.59   57.5    34    2.1    78     5.1   990.8    0.00 
  55    9:50   0.62   58.2    32    1.5    97     4.7   990.8    0.00 
  55   10:00   0.61   57.9    31    1.5   210     4.6   990.6    0.00 
  55   10:10   0.66   57.4    30    2.8    93     6.0   990.6    0.00 
  55   10:20   0.70   58.7    28    3.2   150     6.5   990.7    0.00 
  55   10:30   0.73   59.2    27    2.7   191     5.7   990.7    0.00 
  55   10:40   0.77   59.7    26    2.9   140     7.2   990.7    0.00 
  55   10:50   0.78   58.8    25    4.1    93     6.9   990.7    0.00 
  55   11:00   0.77   58.9    26    3.3    62     7.2   990.6    0.00 
  55   11:10   0.77   59.0    26    4.1    64     6.9   990.5    0.00 
  55   11:20   0.77   59.2    26    4.1    78     8.1   990.5    0.00 
  55   11:30   0.78   59.0    26    5.7    93     8.7   990.4    0.00 
  55   11:40   0.78   59.2    26    3.2    76     6.4   990.3    0.00 
  55   11:50   0.78   59.7    26    4.9   109     9.5   990.2    0.00 
  55   12:00   0.77   59.6    26    2.8    68     8.0   990.1    0.00 
  55   12:10   0.78   59.7    26    5.1    87     9.1   990.0    0.00 
  55   12:20   0.78   60.5    26    2.7   160     6.6   989.9    0.00 
  55   12:30   0.74   60.7    26    2.5   156     6.2   989.7    0.00 
  55   12:40   0.78   60.8    26    3.5   165     8.7   989.5    0.00 
  55   12:50   0.70   60.4    25    1.9    62     5.3   989.3    0.00 
  55   13:00   0.75   60.7    25    3.9   148     8.8   989.2    0.00 
  55   13:10   0.71   60.6    25    2.9   119     6.4   989.1    0.00 
  55   13:20   0.73   61.7    24    1.8   123     5.3   988.9    0.00 
  55   13:30   0.71   62.6    24    4.5   106    10.3   988.8    0.00 
  55   13:40   0.70   61.4    24    5.4   114    11.1   988.6    0.00 
  55   13:50   0.68   62.2    24    4.7   103    10.4   988.5    0.00 
  55   14:00   0.66   61.8    24    3.7    73     7.6   988.5    0.00 
  55   14:10   0.64   63.0    23    4.0   144     8.1   988.5    0.00 
  55   14:20   0.61   63.2    23    3.2   176     6.5   988.4    0.00 
  55   14:30   0.59   63.9    23    2.5   101     7.6   988.4    0.00 
  55   14:40   0.56   63.4    24    4.8   160    10.7   988.3    0.00 
  55   14:50   0.54   63.2    24    4.9   138     9.7   988.2    0.00 
  55   15:00   0.51   63.3    24    4.6   156     7.6   988.2    0.00 
  55   15:10   0.48   63.0    23    4.3   144     8.5   988.2    0.00 
  55   15:20   0.45   63.7    23    4.3   136     9.1   988.1    0.00 
  55   15:30   0.41   62.5    24    5.1   144     8.4   988.0    0.00 
  55   15:40   0.38   64.3    23    2.5   152     7.8   988.0    0.00 
  55   15:50   0.35   63.0    24    4.9   142     7.8   987.9    0.00 
  55   16:00   0.31   63.3    24    3.3   143     6.8   987.9    0.00 
  55   16:10   0.28   63.0    24    4.4   131     6.8   988.0    0.00 
  55   16:20   0.24   62.7    24    4.7   164     8.0   988.0    0.00 
  55   16:30   0.21   63.3    24    3.9   147     6.1   988.0    0.00 
  55   16:40   0.17   62.6    24    3.4   102     5.8   988.1    0.00 
  55   16:50   0.09   61.5    26    3.5   134     6.1   988.2    0.00 
  55   17:00   0.01   59.5    27    3.3   130     6.1   988.3    0.00 
  55   17:10   0.01   58.6    28    3.9   144     5.8   988.3    0.00 
  55   17:20   0.01   57.4    32    4.0   143     6.1   988.2    0.00 
  55   17:30   0.01   56.4    33    4.2   153     6.4   988.1    0.00 
  55   17:40   0.00   53.8    44    3.3   223     4.6   988.0    0.00 
  55   17:50   0.00   51.8    48    3.6   208     4.9   988.1    0.00 
  55   18:00   0.00   51.0    48    4.4   221     5.6   988.0    0.00 
  55   18:10   0.00   51.0    45    5.0   243     5.9   988.0    0.00 
  55   18:20   0.00   51.3    43    5.3   247     6.4   988.0    0.00 
  55   18:30   0.00   51.1    44    5.3   246     6.3   988.0    0.00 
  55   18:40   0.00   49.9    47    6.3   250     7.8   988.1    0.00 
  55   18:50   0.00   49.5    47    6.2   251     7.4   988.2    0.00 
  55   19:00   0.00   49.0    48    7.1   250     8.0   988.3    0.00 
  55   19:10   0.00   48.8    48    7.4   250     8.3   988.3    0.00 
  55   19:20   0.00   49.0    47    6.6   243     8.0   988.2    0.00 
  55   19:30   0.00   48.8    47    7.5   246     8.4   988.2    0.00 
  55   19:40   0.00   49.2    45    7.9   244     9.1   988.3    0.00 
  55   19:50   0.00   49.3    45    7.3   243     8.8   988.4    0.00 
  55   20:00   0.00   48.3    48    6.5   242     8.3   988.5    0.00 
  55   20:10   0.00   48.0    48    7.3   245     8.5   988.5    0.00 
  55   20:20   0.00   47.5    50    7.3   245     8.4   988.5    0.00 
  55   20:30   0.00   47.9    48    7.9   245     9.1   988.6    0.00 
  55   20:40   0.00   48.6    47    7.3   248     8.3   988.6    0.00 
  55   20:50   0.00   48.4    47    7.1   249     8.8   988.7    0.00 
  55   21:00   0.00   48.9    45    7.0   246     9.0   988.7    0.00 
  55   21:10   0.00   49.1    45    6.6   251     8.5   988.7    0.00 
  55   21:20   0.00   49.9    43    7.4   254     9.4   988.8    0.00 
  55   21:30   0.00   49.9    43    6.5   255     8.1   988.9    0.00 
  55   21:40   0.00   49.2    44    7.0   260     8.2   988.9    0.00 
  55   21:50   0.00   49.2    44    6.3   258     8.1   988.9    0.00 
  55   22:00   0.00   49.3    45    5.8   246     7.4   988.9    0.00 
  55   22:10   0.00   49.1    45    5.7   248     6.9   988.8    0.00 

Return to Anza Borrego Desert State Park graphs page.


Western Regional Climate Center,wrcc@dri.edu